Terminal Aerodrome Forecast
Issued by NWS Sioux Falls, SD

Home | Current Version | Previous Version | Graphics & Text | Print | Product List | Glossary Off
Versions: 1 2 3 4 5 6 7 8 9 10 11 12 13 14 15 16 17 18

000
FTUS43 KFSD 170104 AAA
TAFFSD
TAF AMD
KFSD 170104Z 1701/1724 36006KT 6SM -FZRA BR OVC010
     FM170200 34007KT P6SM OVC010
     FM170500 34007KT P6SM BKN015
     FM170900 33006KT P6SM SCT035
     FM171700 27005KT P6SM FEW150=

USA.gov is the U.S. government's official web portal to all federal, state and local government web resources and services.